createdAt,value
2018-03-24T00:00:00.088Z,785.34
2018-03-24T00:00:04.081Z,785.31
2018-03-24T00:00:08.184Z,785.33
2018-03-24T00:00:12.188Z,785.32
2018-03-24T00:00:16.183Z,785.33
2018-03-24T00:00:20.279Z,785.32
2018-03-24T00:00:24.387Z,785.3
2018-03-24T00:00:28.595Z,785.31
2018-03-24T00:00:32.920Z,785.34
2018-03-24T00:00:37.121Z,785.36
2018-03-24T00:00:41.114Z,785.38
2018-03-24T00:00:45.325Z,785.35
2018-03-24T00:00:49.530Z,785.36
2018-03-24T00:00:53.630Z,785.33
2018-03-24T00:00:57.733Z,785.38
2018-03-24T00:01:01.723Z,785.41
2018-03-24T00:01:05.931Z,785.41
2018-03-24T00:01:09.934Z,785.4
2018-03-24T00:01:14.040Z,785.44
2018-03-24T00:01:18.252Z,785.4
2018-03-24T00:01:22.365Z,785.39
2018-03-24T00:01:26.688Z,785.4
2018-03-24T00:01:30.906Z,785.43
2018-03-24T00:01:35.112Z,785.46
2018-03-24T00:01:39.217Z,785.41
2018-03-24T00:01:43.316Z,785.41
2018-03-24T00:01:47.520Z,785.43
2018-03-24T00:01:51.515Z,785.47
2018-03-24T00:01:55.731Z,785.46
2018-03-24T00:01:59.833Z,785.45
2018-03-24T00:02:03.822Z,785.48
2018-03-24T00:02:08.049Z,785.46
2018-03-24T00:02:12.262Z,785.46
2018-03-24T00:02:16.253Z,785.46
2018-03-24T00:02:20.356Z,785.49
2018-03-24T00:02:24.358Z,785.48
2018-03-24T00:02:28.357Z,785.51
2018-03-24T00:02:32.474Z,785.47
2018-03-24T00:02:36.787Z,785.51
2018-03-24T00:02:40.675Z,785.51
2018-03-24T00:02:45.006Z,785.51
2018-03-24T00:02:49.218Z,785.54
2018-03-24T00:02:53.551Z,785.52
2018-03-24T00:02:57.763Z,785.54
2018-03-24T00:03:01.876Z,785.55
2018-03-24T00:03:05.994Z,785.54
2018-03-24T00:03:09.884Z,785.52
2018-03-24T00:03:13.985Z,785.54
2018-03-24T00:03:18.090Z,785.53
2018-03-24T00:03:22.190Z,785.53
2018-03-24T00:03:26.291Z,785.53
2018-03-24T00:03:30.302Z,785.56
2018-03-24T00:03:34.614Z,785.59
2018-03-24T00:03:38.608Z,785.57
2018-03-24T00:03:42.490Z,785.61
2018-03-24T00:03:46.477Z,785.59
2018-03-24T00:03:50.481Z,785.59
2018-03-24T00:03:54.690Z,785.6
2018-03-24T00:03:58.895Z,785.62
2018-03-24T00:04:02.886Z,785.61
2018-03-24T00:04:06.883Z,785.61
2018-03-24T00:04:10.984Z,785.58
2018-03-24T00:04:15.091Z,785.61
2018-03-24T00:04:19.203Z,785.61
2018-03-24T00:04:23.195Z,785.6
2018-03-24T00:04:27.188Z,785.63
2018-03-24T00:04:31.185Z,785.65
2018-03-24T00:04:35.176Z,785.63
2018-03-24T00:04:39.167Z,785.65
2018-03-24T00:04:43.160Z,785.65
2018-03-24T00:04:47.042Z,785.63
2018-03-24T00:04:51.253Z,785.65
2018-03-24T00:04:55.466Z,785.66
2018-03-24T00:04:59.574Z,785.66
2018-03-24T00:05:03.347Z,785.65
2018-03-24T00:05:07.560Z,785.66
2018-03-24T00:05:11.874Z,785.66
2018-03-24T00:05:15.977Z,785.64
2018-03-24T00:05:19.973Z,785.62
2018-03-24T00:05:24.295Z,785.64
2018-03-24T00:05:28.284Z,785.68
2018-03-24T00:05:32.381Z,785.68
2018-03-24T00:05:36.370Z,785.67
2018-03-24T00:05:40.587Z,785.66
2018-03-24T00:05:44.801Z,785.61
2018-03-24T00:05:49.015Z,785.63
2018-03-24T00:05:52.898Z,785.67
2018-03-24T00:05:57.239Z,785.64
2018-03-24T00:06:01.230Z,785.66
2018-03-24T00:06:05.486Z,785.71
2018-03-24T00:06:09.479Z,785.68
2018-03-24T00:06:13.580Z,785.63
2018-03-24T00:06:17.807Z,785.69
2018-03-24T00:06:22.030Z,785.66
2018-03-24T00:06:26.244Z,785.71
2018-03-24T00:06:30.346Z,785.69
2018-03-24T00:06:34.337Z,785.71
2018-03-24T00:06:38.550Z,785.7
2018-03-24T00:06:42.663Z,785.65
2018-03-24T00:06:46.767Z,785.68
2018-03-24T00:06:50.868Z,785.75
2018-03-24T00:06:55.180Z,785.73
2018-03-24T00:06:59.285Z,785.74
2018-03-24T00:07:03.746Z,785.74
2018-03-24T00:07:08.004Z,785.74
2018-03-24T00:07:12.217Z,785.75
2018-03-24T00:07:15.990Z,785.76
2018-03-24T00:07:20.087Z,785.75
2018-03-24T00:07:24.400Z,785.78
2018-03-24T00:07:28.759Z,785.79
2018-03-24T00:07:32.968Z,785.78
2018-03-24T00:07:37.068Z,785.78
2018-03-24T00:07:41.093Z,785.77
2018-03-24T00:07:45.195Z,785.76
2018-03-24T00:07:49.296Z,785.75
2018-03-24T00:07:53.289Z,785.78
2018-03-24T00:07:57.279Z,785.76
2018-03-24T00:08:01.376Z,785.81
2018-03-24T00:08:05.262Z,785.78
2018-03-24T00:08:09.431Z,785.77
2018-03-24T00:08:13.423Z,785.76
2018-03-24T00:08:17.566Z,785.77
2018-03-24T00:08:22.040Z,785.83
2018-03-24T00:08:26.339Z,785.82
2018-03-24T00:08:30.549Z,785.81
2018-03-24T00:08:34.654Z,785.81
2018-03-24T00:08:38.895Z,785.83
2018-03-24T00:08:43.004Z,785.81
2018-03-24T00:08:47.209Z,785.8
2018-03-24T00:08:51.426Z,785.83
2018-03-24T00:08:55.538Z,785.83
2018-03-24T00:08:59.536Z,785.8
2018-03-24T00:09:03.794Z,785.8
2018-03-24T00:09:07.788Z,785.82
2018-03-24T00:09:11.995Z,785.8
2018-03-24T00:09:16.318Z,785.82
2018-03-24T00:09:20.418Z,785.85
2018-03-24T00:09:24.418Z,785.82
2018-03-24T00:09:28.509Z,785.81
2018-03-24T00:09:32.823Z,785.82
2018-03-24T00:09:36.977Z,785.83
2018-03-24T00:09:40.977Z,785.8
2018-03-24T00:09:45.296Z,785.82
2018-03-24T00:09:49.398Z,785.85
2018-03-24T00:09:53.499Z,785.82
2018-03-24T00:09:57.707Z,785.84
2018-03-24T00:10:01.702Z,785.85
2018-03-24T00:10:05.476Z,785.84
2018-03-24T00:10:09.474Z,785.88
2018-03-24T00:10:13.685Z,785.87
2018-03-24T00:10:17.896Z,785.85
2018-03-24T00:10:22.110Z,785.86
2018-03-24T00:10:26.219Z,785.85
2018-03-24T00:10:30.321Z,785.86
2018-03-24T00:10:34.311Z,785.85
2018-03-24T00:10:38.628Z,785.85
2018-03-24T00:10:42.733Z,785.86
2018-03-24T00:10:46.838Z,785.84
2018-03-24T00:10:51.046Z,785.85
2018-03-24T00:10:55.042Z,785.83
2018-03-24T00:10:59.142Z,785.86
2018-03-24T00:11:03.246Z,785.85
2018-03-24T00:11:07.518Z,785.88
2018-03-24T00:11:11.509Z,785.86
2018-03-24T00:11:15.500Z,785.85
2018-03-24T00:11:19.610Z,785.88
2018-03-24T00:11:23.923Z,785.89
2018-03-24T00:11:28.131Z,785.86
2018-03-24T00:11:32.342Z,785.86
2018-03-24T00:11:36.444Z,785.87
2018-03-24T00:11:40.439Z,785.86
2018-03-24T00:11:44.433Z,785.86
2018-03-24T00:11:48.318Z,785.83
2018-03-24T00:11:52.631Z,785.87
2018-03-24T00:11:56.633Z,785.83
2018-03-24T00:12:00.841Z,785.85
2018-03-24T00:12:05.089Z,785.88
2018-03-24T00:12:09.088Z,785.86
2018-03-24T00:12:13.412Z,785.9
2018-03-24T00:12:17.413Z,785.87
2018-03-24T00:12:21.407Z,785.87
2018-03-24T00:12:25.505Z,785.84
2018-03-24T00:12:29.605Z,785.84
2018-03-24T00:12:33.706Z,785.84
2018-03-24T00:12:37.813Z,785.84
2018-03-24T00:12:41.924Z,785.84
2018-03-24T00:12:46.140Z,785.84
2018-03-24T00:12:49.918Z,785.82
2018-03-24T00:12:54.029Z,785.89
2018-03-24T00:12:58.136Z,785.87
2018-03-24T00:13:02.281Z,785.86
2018-03-24T00:13:06.195Z,785.87
2018-03-24T00:13:10.270Z,785.9
2018-03-24T00:13:14.482Z,785.9
2018-03-24T00:13:18.476Z,785.87
2018-03-24T00:13:22.472Z,785.86
2018-03-24T00:13:26.463Z,785.89
2018-03-24T00:13:30.563Z,785.85
2018-03-24T00:13:34.795Z,785.85
2018-03-24T00:13:38.764Z,785.83
2018-03-24T00:13:42.881Z,785.86
2018-03-24T00:13:47.095Z,785.89
2018-03-24T00:13:51.310Z,785.86
2018-03-24T00:13:55.413Z,785.88
2018-03-24T00:13:59.734Z,785.83
2018-03-24T00:14:04.029Z,785.85
2018-03-24T00:14:08.030Z,785.85
2018-03-24T00:14:12.242Z,785.85
2018-03-24T00:14:16.464Z,785.87
2018-03-24T00:14:20.631Z,785.85
2018-03-24T00:14:24.948Z,785.85
2018-03-24T00:14:29.061Z,785.84
2018-03-24T00:14:33.380Z,785.78
2018-03-24T00:14:37.586Z,785.78
2018-03-24T00:14:41.799Z,785.79
2018-03-24T00:14:45.791Z,785.78
2018-03-24T00:14:49.996Z,785.79
2018-03-24T00:14:54.212Z,785.79
2018-03-24T00:14:58.315Z,785.78
2018-03-24T00:15:02.418Z,785.76
2018-03-24T00:15:06.421Z,785.75
2018-03-24T00:15:10.526Z,785.77
2018-03-24T00:15:14.628Z,785.75
2018-03-24T00:15:18.743Z,785.76
2018-03-24T00:15:22.735Z,785.73
2018-03-24T00:15:26.949Z,785.76
2018-03-24T00:15:30.955Z,785.79
2018-03-24T00:15:35.166Z,785.78
2018-03-24T00:15:39.372Z,785.78
2018-03-24T00:15:43.367Z,785.76
2018-03-24T00:15:47.250Z,785.78
2018-03-24T00:15:51.571Z,785.77
2018-03-24T00:15:55.459Z,785.78
2018-03-24T00:15:59.669Z,785.7
2018-03-24T00:16:04.012Z,785.75
2018-03-24T00:16:08.113Z,785.76
2018-03-24T00:16:12.350Z,785.73
2018-03-24T00:16:16.561Z,785.73
2018-03-24T00:16:20.793Z,785.73
2018-03-24T00:16:25.119Z,785.72
2018-03-24T00:16:29.335Z,785.69
2018-03-24T00:16:33.552Z,785.71
2018-03-24T00:16:37.770Z,785.71
2018-03-24T00:16:42.094Z,785.7
2018-03-24T00:16:46.137Z,785.66
2018-03-24T00:16:50.459Z,785.65
2018-03-24T00:16:54.666Z,785.67
2018-03-24T00:16:58.949Z,785.65
2018-03-24T00:17:03.184Z,785.67
2018-03-24T00:17:07.412Z,785.65
2018-03-24T00:17:11.622Z,785.65
2018-03-24T00:17:15.846Z,785.65
2018-03-24T00:17:19.836Z,785.65
2018-03-24T00:17:23.825Z,785.63
2018-03-24T00:17:27.930Z,785.67
2018-03-24T00:17:32.153Z,785.64
2018-03-24T00:17:36.250Z,785.62
2018-03-24T00:17:40.348Z,785.61
2018-03-24T00:17:44.565Z,785.61
2018-03-24T00:17:48.773Z,785.61
2018-03-24T00:17:52.878Z,785.59
2018-03-24T00:17:56.868Z,785.6
2018-03-24T00:18:01.089Z,785.59
2018-03-24T00:18:05.136Z,785.56
2018-03-24T00:18:09.237Z,785.57
2018-03-24T00:18:13.231Z,785.55
2018-03-24T00:18:17.339Z,785.52
2018-03-24T00:18:21.557Z,785.52
2018-03-24T00:18:25.658Z,785.54
2018-03-24T00:18:29.770Z,785.45
2018-03-24T00:18:33.768Z,785.5
2018-03-24T00:18:37.759Z,785.49
2018-03-24T00:18:41.646Z,785.5
2018-03-24T00:18:45.852Z,785.51
2018-03-24T00:18:49.953Z,785.51
2018-03-24T00:18:54.159Z,785.5
2018-03-24T00:18:58.040Z,785.48
2018-03-24T00:19:02.259Z,785.45
2018-03-24T00:19:06.268Z,785.49
2018-03-24T00:19:10.368Z,785.38
2018-03-24T00:19:14.574Z,785.37
2018-03-24T00:19:18.567Z,785.45
2018-03-24T00:19:22.889Z,785.4
2018-03-24T00:19:27.119Z,785.43
2018-03-24T00:19:31.323Z,785.39
2018-03-24T00:19:35.425Z,785.42
2018-03-24T00:19:39.637Z,785.39
2018-03-24T00:19:43.648Z,785.39
2018-03-24T00:19:47.995Z,785.37
2018-03-24T00:19:52.108Z,785.37
2018-03-24T00:19:56.426Z,785.33
2018-03-24T00:20:00.635Z,785.35
2018-03-24T00:20:05.043Z,785.34
2018-03-24T00:20:08.824Z,785.33
2018-03-24T00:20:12.833Z,785.32
2018-03-24T00:20:16.830Z,785.31
2018-03-24T00:20:20.945Z,785.3
2018-03-24T00:20:24.944Z,785.28
2018-03-24T00:20:28.938Z,785.31
2018-03-24T00:20:32.827Z,785.26
2018-03-24T00:20:36.932Z,785.23
2018-03-24T00:20:41.151Z,785.23
2018-03-24T00:20:45.163Z,785.26
2018-03-24T00:20:49.381Z,785.23
2018-03-24T00:20:53.709Z,785.22
2018-03-24T00:20:57.590Z,785.2
2018-03-24T00:21:01.480Z,785.19
2018-03-24T00:21:05.686Z,785.15
2018-03-24T00:21:09.791Z,785.19
2018-03-24T00:21:13.892Z,785.17
2018-03-24T00:21:17.910Z,785.19
2018-03-24T00:21:21.897Z,785.18
2018-03-24T00:21:26.061Z,785.16
2018-03-24T00:21:30.275Z,785.12
2018-03-24T00:21:34.378Z,785.14
2018-03-24T00:21:38.475Z,785.15
2018-03-24T00:21:42.359Z,785.12
2018-03-24T00:21:46.465Z,785.15
2018-03-24T00:21:50.782Z,785.11
2018-03-24T00:21:55.100Z,785.13
2018-03-24T00:21:59.422Z,785.05
2018-03-24T00:22:03.414Z,785.07
2018-03-24T00:22:07.623Z,785.07
2018-03-24T00:22:11.945Z,785.08
2018-03-24T00:22:16.048Z,785.07
2018-03-24T00:22:20.160Z,785.01
2018-03-24T00:22:24.481Z,785.03
2018-03-24T00:22:28.471Z,785.03
2018-03-24T00:22:32.675Z,785.03
2018-03-24T00:22:36.882Z,785.02
2018-03-24T00:22:41.095Z,785
2018-03-24T00:22:45.192Z,785
2018-03-24T00:22:49.531Z,784.99
2018-03-24T00:22:53.851Z,784.98
2018-03-24T00:22:57.953Z,784.95
2018-03-24T00:23:01.898Z,784.95
2018-03-24T00:23:05.677Z,784.95
2018-03-24T00:23:09.887Z,784.93
2018-03-24T00:23:13.989Z,784.92
2018-03-24T00:23:18.316Z,784.92
2018-03-24T00:23:22.572Z,784.91
2018-03-24T00:23:26.681Z,784.86
2018-03-24T00:23:30.678Z,784.91
2018-03-24T00:23:34.940Z,784.88
2018-03-24T00:23:39.055Z,784.86
2018-03-24T00:23:43.249Z,784.85
2018-03-24T00:23:47.347Z,784.83
2018-03-24T00:23:51.450Z,784.76
2018-03-24T00:23:55.774Z,784.82
2018-03-24T00:23:59.879Z,784.8
2018-03-24T00:24:03.987Z,784.79
2018-03-24T00:24:07.980Z,784.76
2018-03-24T00:24:12.304Z,784.78
2018-03-24T00:24:16.525Z,784.77
2018-03-24T00:24:20.407Z,784.74
2018-03-24T00:24:24.508Z,784.73
2018-03-24T00:24:28.400Z,784.74
2018-03-24T00:24:32.605Z,784.73
2018-03-24T00:24:36.813Z,784.73
2018-03-24T00:24:41.020Z,784.71
2018-03-24T00:24:45.118Z,784.7
2018-03-24T00:24:49.327Z,784.69
2018-03-24T00:24:53.660Z,784.71
2018-03-24T00:24:57.874Z,784.68
2018-03-24T00:25:01.972Z,784.64
2018-03-24T00:25:06.075Z,784.68
2018-03-24T00:25:10.286Z,784.66
2018-03-24T00:25:14.415Z,784.64
2018-03-24T00:25:18.625Z,784.65
2018-03-24T00:25:22.612Z,784.61
2018-03-24T00:25:26.715Z,784.6
2018-03-24T00:25:30.817Z,784.6
2018-03-24T00:25:34.811Z,784.61
2018-03-24T00:25:38.909Z,784.58
2018-03-24T00:25:43.004Z,784.55
2018-03-24T00:25:47.215Z,784.53
2018-03-24T00:25:51.314Z,784.54
2018-03-24T00:25:55.316Z,784.49
2018-03-24T00:25:59.420Z,784.46
2018-03-24T00:26:03.526Z,784.47
2018-03-24T00:26:07.850Z,784.4
2018-03-24T00:26:12.116Z,784.45
2018-03-24T00:26:16.329Z,784.44
2018-03-24T00:26:20.536Z,784.41
2018-03-24T00:26:24.641Z,784.43
2018-03-24T00:26:28.633Z,784.39
2018-03-24T00:26:32.740Z,784.4
2018-03-24T00:26:36.831Z,784.38
2018-03-24T00:26:40.822Z,784.39
2018-03-24T00:26:45.032Z,784.4
2018-03-24T00:26:49.350Z,784.37
2018-03-24T00:26:53.456Z,784.36
2018-03-24T00:26:57.786Z,784.35
2018-03-24T00:27:02.359Z,784.34
2018-03-24T00:27:06.574Z,784.31
2018-03-24T00:27:10.905Z,784.33
2018-03-24T00:27:15.144Z,784.28
2018-03-24T00:27:19.249Z,784.3
2018-03-24T00:27:23.456Z,784.27
2018-03-24T00:27:27.679Z,784.23
2018-03-24T00:27:31.889Z,784.25
2018-03-24T00:27:35.881Z,784.25
2018-03-24T00:27:40.097Z,784.24
2018-03-24T00:27:44.200Z,784.24
2018-03-24T00:27:48.300Z,784.22
2018-03-24T00:27:52.613Z,784.2
2018-03-24T00:27:56.716Z,784.18
2018-03-24T00:28:00.832Z,784.22
2018-03-24T00:28:04.832Z,784.2
2018-03-24T00:28:08.828Z,784.15
2018-03-24T00:28:13.040Z,784.16
2018-03-24T00:28:17.033Z,784.18
2018-03-24T00:28:21.022Z,784.15
2018-03-24T00:28:25.121Z,784.15
2018-03-24T00:28:29.336Z,784.13
2018-03-24T00:28:33.443Z,784.11
2018-03-24T00:28:37.542Z,784.09
2018-03-24T00:28:41.429Z,784.12
2018-03-24T00:28:45.640Z,784.07
2018-03-24T00:28:49.747Z,784.07
2018-03-24T00:28:53.949Z,784.02
2018-03-24T00:28:57.948Z,784.03
2018-03-24T00:29:02.250Z,784.04
2018-03-24T00:29:06.351Z,784.01
2018-03-24T00:29:10.451Z,784.01
2018-03-24T00:29:14.668Z,784
2018-03-24T00:29:18.773Z,784
2018-03-24T00:29:22.997Z,783.99
2018-03-24T00:29:27.002Z,783.96
2018-03-24T00:29:30.885Z,783.98
2018-03-24T00:29:35.211Z,783.96
2018-03-24T00:29:39.310Z,783.9
2018-03-24T00:29:43.622Z,783.93
2018-03-24T00:29:47.828Z,783.91
2018-03-24T00:29:51.831Z,783.91
2018-03-24T00:29:56.049Z,783.9
2018-03-24T00:29:59.938Z,783.89
2018-03-24T00:30:04.055Z,783.88
2018-03-24T00:30:07.940Z,783.88
2018-03-24T00:30:12.161Z,783.87
2018-03-24T00:30:16.483Z,783.82
2018-03-24T00:30:20.581Z,783.86
2018-03-24T00:30:24.795Z,783.86
2018-03-24T00:30:28.793Z,783.82
2018-03-24T00:30:32.897Z,783.84
2018-03-24T00:30:37.255Z,783.82
2018-03-24T00:30:41.249Z,783.81
2018-03-24T00:30:45.249Z,783.79
2018-03-24T00:30:49.352Z,783.82
2018-03-24T00:30:53.476Z,783.78
2018-03-24T00:30:57.688Z,783.79
2018-03-24T00:31:02.057Z,783.77
2018-03-24T00:31:06.113Z,783.76
2018-03-24T00:31:10.224Z,783.72
2018-03-24T00:31:14.437Z,783.76
2018-03-24T00:31:18.535Z,783.73
2018-03-24T00:31:22.747Z,783.7
2018-03-24T00:31:27.061Z,783.71
2018-03-24T00:31:31.057Z,783.7
2018-03-24T00:31:35.163Z,783.7
2018-03-24T00:31:39.164Z,783.67
2018-03-24T00:31:43.389Z,783.69
2018-03-24T00:31:47.495Z,783.63
2018-03-24T00:31:51.601Z,783.67
2018-03-24T00:31:55.703Z,783.65
2018-03-24T00:31:59.917Z,783.66
2018-03-24T00:32:03.913Z,783.61
2018-03-24T00:32:08.011Z,783.62
2018-03-24T00:32:12.228Z,783.59
2018-03-24T00:32:16.555Z,783.58
2018-03-24T00:32:20.768Z,783.57
2018-03-24T00:32:24.868Z,783.57
2018-03-24T00:32:28.860Z,783.58
2018-03-24T00:32:33.013Z,783.55
2018-03-24T00:32:37.221Z,783.57
2018-03-24T00:32:41.320Z,783.54
2018-03-24T00:32:45.425Z,783.54
2018-03-24T00:32:49.646Z,783.51
2018-03-24T00:32:54.004Z,783.49
2018-03-24T00:32:58.126Z,783.48
2018-03-24T00:33:02.124Z,783.5
2018-03-24T00:33:06.450Z,783.45
2018-03-24T00:33:10.437Z,783.45
2018-03-24T00:33:14.539Z,783.48
2018-03-24T00:33:18.747Z,783.48
2018-03-24T00:33:22.956Z,783.45
2018-03-24T00:33:27.056Z,783.49
2018-03-24T00:33:31.375Z,783.45
2018-03-24T00:33:35.587Z,783.45
2018-03-24T00:33:39.697Z,783.4
2018-03-24T00:33:43.805Z,783.44
2018-03-24T00:33:47.800Z,783.39
2018-03-24T00:33:51.799Z,783.43
2018-03-24T00:33:55.794Z,783.37
2018-03-24T00:34:00.003Z,783.39
2018-03-24T00:34:04.040Z,783.37
2018-03-24T00:34:08.248Z,783.33
2018-03-24T00:34:12.569Z,783.33
2018-03-24T00:34:16.790Z,783.33
2018-03-24T00:34:20.901Z,783.34
2018-03-24T00:34:25.108Z,783.31
2018-03-24T00:34:29.100Z,783.31
2018-03-24T00:34:33.094Z,783.29
2018-03-24T00:34:37.410Z,783.27
2018-03-24T00:34:41.611Z,783.3
2018-03-24T00:34:45.716Z,783.27
2018-03-24T00:34:49.826Z,783.26
2018-03-24T00:34:53.928Z,783.27
2018-03-24T00:34:58.027Z,783.25
2018-03-24T00:35:02.373Z,783.25
2018-03-24T00:35:06.364Z,783.25
2018-03-24T00:35:10.245Z,783.22
2018-03-24T00:35:14.236Z,783.22
2018-03-24T00:35:18.551Z,783.19
2018-03-24T00:35:22.330Z,783.2
2018-03-24T00:35:26.430Z,783.22
2018-03-24T00:35:30.769Z,783.16
2018-03-24T00:35:34.878Z,783.18
2018-03-24T00:35:38.762Z,783.17
2018-03-24T00:35:42.918Z,783.15
2018-03-24T00:35:47.128Z,783.17
2018-03-24T00:35:51.348Z,783.18
2018-03-24T00:35:55.558Z,783.11
2018-03-24T00:35:59.552Z,783.09
2018-03-24T00:36:03.594Z,783.09
2018-03-24T00:36:07.470Z,783.06
2018-03-24T00:36:11.569Z,783.11
2018-03-24T00:36:15.774Z,783.12
2018-03-24T00:36:20.095Z,783.11
2018-03-24T00:36:24.205Z,783.08
2018-03-24T00:36:28.523Z,783.07
2018-03-24T00:36:32.421Z,783.09
2018-03-24T00:36:36.628Z,783.04
2018-03-24T00:36:40.510Z,783.08
2018-03-24T00:36:44.608Z,783.08
2018-03-24T00:36:48.707Z,783.05
2018-03-24T00:36:53.063Z,783.06
2018-03-24T00:36:57.271Z,783
2018-03-24T00:37:01.774Z,783.02
2018-03-24T00:37:06.000Z,783.01
2018-03-24T00:37:10.215Z,783
2018-03-24T00:37:14.424Z,782.97
2018-03-24T00:37:18.412Z,782.97
2018-03-24T00:37:22.519Z,782.99
2018-03-24T00:37:26.736Z,783
2018-03-24T00:37:30.732Z,782.95
2018-03-24T00:37:34.607Z,782.96
2018-03-24T00:37:38.941Z,782.93
2018-03-24T00:37:43.039Z,782.91
2018-03-24T00:37:47.248Z,782.94
2018-03-24T00:37:51.350Z,782.92
2018-03-24T00:37:55.561Z,782.9
2018-03-24T00:37:59.883Z,782.92
2018-03-24T00:38:04.386Z,782.89
2018-03-24T00:38:08.601Z,782.88
2018-03-24T00:38:12.775Z,782.92
2018-03-24T00:38:16.768Z,782.88
2018-03-24T00:38:20.974Z,782.86
2018-03-24T00:38:25.089Z,782.89
2018-03-24T00:38:29.187Z,782.86
2018-03-24T00:38:33.182Z,782.85
2018-03-24T00:38:37.066Z,782.85
2018-03-24T00:38:41.277Z,782.83
2018-03-24T00:38:45.376Z,782.85
2018-03-24T00:38:49.482Z,782.84
2018-03-24T00:38:53.693Z,782.82
2018-03-24T00:38:57.795Z,782.83
2018-03-24T00:39:02.038Z,782.84
2018-03-24T00:39:06.144Z,782.8
2018-03-24T00:39:10.131Z,782.82
2018-03-24T00:39:14.458Z,782.8
2018-03-24T00:39:18.669Z,782.77
2018-03-24T00:39:22.770Z,782.8
2018-03-24T00:39:26.840Z,782.78
2018-03-24T00:39:31.055Z,782.81
2018-03-24T00:39:35.276Z,782.77
2018-03-24T00:39:39.384Z,782.76
2018-03-24T00:39:43.364Z,782.73
2018-03-24T00:39:47.570Z,782.71
2018-03-24T00:39:51.674Z,782.75
2018-03-24T00:39:55.788Z,782.74
2018-03-24T00:39:59.892Z,782.75
2018-03-24T00:40:04.228Z,782.74
2018-03-24T00:40:08.447Z,782.72
2018-03-24T00:40:12.546Z,782.71
2018-03-24T00:40:16.771Z,782.72
2018-03-24T00:40:20.981Z,782.72
2018-03-24T00:40:25.185Z,782.72
2018-03-24T00:40:29.396Z,782.72
2018-03-24T00:40:33.382Z,782.69
2018-03-24T00:40:37.480Z,782.73
2018-03-24T00:40:41.699Z,782.72
2018-03-24T00:40:45.688Z,782.71
2018-03-24T00:40:49.582Z,782.66
2018-03-24T00:40:53.636Z,782.7
2018-03-24T00:40:57.844Z,782.71
2018-03-24T00:41:01.952Z,782.67
2018-03-24T00:41:05.838Z,782.69
2018-03-24T00:41:09.721Z,782.65
2018-03-24T00:41:13.819Z,782.66
2018-03-24T00:41:17.953Z,782.62
2018-03-24T00:41:21.932Z,782.61
2018-03-24T00:41:25.923Z,782.61
2018-03-24T00:41:30.134Z,782.64
2018-03-24T00:41:34.466Z,782.62
2018-03-24T00:41:38.354Z,782.65
2018-03-24T00:41:42.459Z,782.65
2018-03-24T00:41:46.674Z,782.65
2018-03-24T00:41:50.664Z,782.62
2018-03-24T00:41:54.768Z,782.61
2018-03-24T00:41:58.977Z,782.61
2018-03-24T00:42:03.181Z,782.62
2018-03-24T00:42:07.392Z,782.61
2018-03-24T00:42:11.603Z,782.55
2018-03-24T00:42:16.023Z,782.58
2018-03-24T00:42:20.127Z,782.56
2018-03-24T00:42:24.442Z,782.56
2018-03-24T00:42:28.788Z,782.54
2018-03-24T00:42:32.676Z,782.56
2018-03-24T00:42:36.668Z,782.55
2018-03-24T00:42:40.766Z,782.5
2018-03-24T00:42:44.977Z,782.51
2018-03-24T00:42:49.208Z,782.55
2018-03-24T00:42:53.309Z,782.51
2018-03-24T00:42:57.524Z,782.56
2018-03-24T00:43:01.675Z,782.55
2018-03-24T00:43:06.029Z,782.53
2018-03-24T00:43:10.237Z,782.54
2018-03-24T00:43:14.573Z,782.54
2018-03-24T00:43:18.898Z,782.53
2018-03-24T00:43:23.110Z,782.55
2018-03-24T00:43:27.212Z,782.53
2018-03-24T00:43:31.201Z,782.5
2018-03-24T00:43:35.406Z,782.55
2018-03-24T00:43:39.505Z,782.53
2018-03-24T00:43:43.718Z,782.55
2018-03-24T00:43:48.037Z,782.51
2018-03-24T00:43:52.034Z,782.5
2018-03-24T00:43:56.351Z,782.49
2018-03-24T00:44:00.558Z,782.51
2018-03-24T00:44:04.750Z,782.49
2018-03-24T00:44:08.962Z,782.52
2018-03-24T00:44:13.064Z,782.48
2018-03-24T00:44:17.276Z,782.47
2018-03-24T00:44:21.493Z,782.49
2018-03-24T00:44:25.377Z,782.48
2018-03-24T00:44:29.708Z,782.5
2018-03-24T00:44:33.705Z,782.5
2018-03-24T00:44:37.693Z,782.49
2018-03-24T00:44:41.796Z,782.49
2018-03-24T00:44:45.902Z,782.5
2018-03-24T00:44:50.223Z,782.51
2018-03-24T00:44:54.331Z,782.49
2018-03-24T00:44:58.324Z,782.48
2018-03-24T00:45:02.639Z,782.52
2018-03-24T00:45:06.632Z,782.53
2018-03-24T00:45:10.990Z,782.52
2018-03-24T00:45:15.202Z,782.52
2018-03-24T00:45:19.517Z,782.44
2018-03-24T00:45:23.412Z,782.49
2018-03-24T00:45:27.584Z,782.48
2018-03-24T00:45:31.802Z,782.46
2018-03-24T00:45:35.684Z,782.51
2018-03-24T00:45:39.783Z,782.49
2018-03-24T00:45:43.777Z,782.54
2018-03-24T00:45:47.988Z,782.49
2018-03-24T00:45:52.111Z,782.5
2018-03-24T00:45:56.321Z,782.49
2018-03-24T00:46:00.532Z,782.49
2018-03-24T00:46:04.421Z,782.46
2018-03-24T00:46:08.526Z,782.47
2018-03-24T00:46:12.850Z,782.48
2018-03-24T00:46:16.949Z,782.5
2018-03-24T00:46:21.267Z,782.47
2018-03-24T00:46:25.587Z,782.46
2018-03-24T00:46:29.581Z,782.47
2018-03-24T00:46:33.803Z,782.45
2018-03-24T00:46:37.692Z,782.49
2018-03-24T00:46:41.898Z,782.51
2018-03-24T00:46:45.997Z,782.45
2018-03-24T00:46:50.153Z,782.47
2018-03-24T00:46:53.935Z,782.46
2018-03-24T00:46:57.819Z,782.45
2018-03-24T00:47:02.040Z,782.46
2018-03-24T00:47:06.041Z,782.47
2018-03-24T00:47:10.256Z,782.47
2018-03-24T00:47:14.459Z,782.48
2018-03-24T00:47:18.564Z,782.44
2018-03-24T00:47:22.784Z,782.47
2018-03-24T00:47:26.993Z,782.46
2018-03-24T00:47:31.144Z,782.46
2018-03-24T00:47:35.248Z,782.45
2018-03-24T00:47:39.466Z,782.46
2018-03-24T00:47:43.785Z,782.45
2018-03-24T00:47:47.780Z,782.47
2018-03-24T00:47:51.998Z,782.45
2018-03-24T00:47:55.885Z,782.44
2018-03-24T00:48:00.205Z,782.44
2018-03-24T00:48:04.871Z,782.46
2018-03-24T00:48:08.976Z,782.45
2018-03-24T00:48:13.193Z,782.46
2018-03-24T00:48:17.294Z,782.47
2018-03-24T00:48:21.295Z,782.44
2018-03-24T00:48:25.404Z,782.44
2018-03-24T00:48:29.287Z,782.46
2018-03-24T00:48:33.387Z,782.47
2018-03-24T00:48:37.499Z,782.44
2018-03-24T00:48:41.664Z,782.46
2018-03-24T00:48:45.659Z,782.42
2018-03-24T00:48:49.974Z,782.45
2018-03-24T00:48:54.299Z,782.45
2018-03-24T00:48:58.398Z,782.44
2018-03-24T00:49:02.501Z,782.46
2018-03-24T00:49:06.820Z,782.42
2018-03-24T00:49:10.924Z,782.45
2018-03-24T00:49:15.028Z,782.44
2018-03-24T00:49:19.341Z,782.42
2018-03-24T00:49:23.438Z,782.43
2018-03-24T00:49:27.758Z,782.45
2018-03-24T00:49:31.748Z,782.42
2018-03-24T00:49:35.742Z,782.41
2018-03-24T00:49:39.975Z,782.43
2018-03-24T00:49:43.970Z,782.43
2018-03-24T00:49:47.858Z,782.44
2018-03-24T00:49:52.063Z,782.47
2018-03-24T00:49:56.385Z,782.39
2018-03-24T00:50:00.375Z,782.45
2018-03-24T00:50:04.638Z,782.43
2018-03-24T00:50:08.736Z,782.42
2018-03-24T00:50:12.842Z,782.43
2018-03-24T00:50:17.156Z,782.44
2018-03-24T00:50:21.370Z,782.41
2018-03-24T00:50:25.472Z,782.4
2018-03-24T00:50:29.468Z,782.41
2018-03-24T00:50:33.793Z,782.42
2018-03-24T00:50:37.890Z,782.39
2018-03-24T00:50:41.986Z,782.41
2018-03-24T00:50:46.306Z,782.42
2018-03-24T00:50:50.413Z,782.39
2018-03-24T00:50:54.186Z,782.4
2018-03-24T00:50:58.069Z,782.37
2018-03-24T00:51:02.061Z,782.36
2018-03-24T00:51:05.953Z,782.38
2018-03-24T00:51:10.051Z,782.38
2018-03-24T00:51:14.275Z,782.35
2018-03-24T00:51:18.264Z,782.36
2018-03-24T00:51:22.254Z,782.39
2018-03-24T00:51:26.569Z,782.37
2018-03-24T00:51:30.679Z,782.37
2018-03-24T00:51:34.891Z,782.31
2018-03-24T00:51:38.882Z,782.31